CheckWX is a tool to help pilots better visualize weather data.  It is not intended as a substitute for an official pre-flight weather briefing.

04:42:04 UTC

KSAC TAF
Sacramento Executive Airport
Sacramento, California, USA
KSAC 222328Z 2300/2324 14004KT P6SM -RA OVC050 FM230800 16004KT 6SM -RA OVC020 FM231700 18006KT P6SM OVC025

Mar-23@
00:00 UTC

Mar-23 @ 00:00 UTC

Mar-23@
08:00 UTC

Mar-23 @ 08:00 UTC

KSAC 222328Z 2300/2324 14004KT P6SM -RA OVC050
Wind
  • 140° at 4 KTS
Conditions
Light Rain
Cloud Levels
  • Overcast at 5,000' AGL

Mar-23@
08:00 UTC

Mar-23 @ 08:00 UTC

Mar-23@
17:00 UTC

Mar-23 @ 17:00 UTC

FM230800 16004KT 6SM -RA OVC020

From

From Standard forecast or significant change

Wind
  • 160° at 4 KTS
Conditions
Light Rain
Cloud Levels
  • Overcast at 2,000' AGL

Mar-23@
17:00 UTC

Mar-23 @ 17:00 UTC

Mar-24@
00:00 UTC

Mar-24 @ 00:00 UTC

FM231700 18006KT P6SM OVC025

From

From Standard forecast or significant change

Wind
  • 180° at 6 KTS
Cloud Levels
  • Overcast at 2,500' AGL